createdAt,value
2023-01-27T00:00:33.378Z,99284.31
2023-01-27T00:03:00.324Z,99275.13
2023-01-27T00:05:27.467Z,99287.22
2023-01-27T00:07:55.524Z,99284.56
2023-01-27T00:10:22.443Z,99275.50
2023-01-27T00:13:12.468Z,99286.06
2023-01-27T00:15:39.573Z,99288.59
2023-01-27T00:18:07.171Z,99291.25
2023-01-27T00:20:54.441Z,99285.56
2023-01-27T00:23:41.747Z,99280.91
2023-01-27T00:26:10.307Z,99286.38
2023-01-27T00:28:38.744Z,99289.06
2023-01-27T00:31:06.564Z,99293.34
2023-01-27T00:33:34.213Z,99300.50
2023-01-27T00:36:14.632Z,99280.81
2023-01-27T00:38:44.502Z,99274.03
2023-01-27T00:41:20.435Z,99298.94
2023-01-27T00:43:47.980Z,99276.25
2023-01-27T00:46:15.704Z,99287.22
2023-01-27T00:48:42.651Z,99285.13
2023-01-27T00:51:09.969Z,99281.84
2023-01-27T00:53:37.229Z,99283.22
2023-01-27T00:56:04.665Z,99281.72
2023-01-27T00:58:31.723Z,99272.28
2023-01-27T01:01:01.409Z,99260.19
2023-01-27T01:03:31.847Z,99260.56
2023-01-27T01:06:02.506Z,99257.44
2023-01-27T01:08:30.842Z,99252.50
2023-01-27T01:10:57.843Z,99261.94
2023-01-27T01:13:25.197Z,99257.44
2023-01-27T01:15:52.216Z,99257.00
2023-01-27T01:18:19.152Z,99262.50
2023-01-27T01:20:46.663Z,99257.00
2023-01-27T01:23:18.050Z,99264.97
2023-01-27T01:25:52.675Z,99265.78
2023-01-27T01:28:19.656Z,99265.41
2023-01-27T01:30:46.740Z,99268.72
2023-01-27T01:33:13.964Z,99260.75
2023-01-27T01:35:41.165Z,99264.22
2023-01-27T01:38:09.260Z,99259.56
2023-01-27T01:40:40.105Z,99264.31
2023-01-27T01:43:12.105Z,99257.66
2023-01-27T01:45:47.904Z,99256.47
2023-01-27T01:48:24.091Z,99251.63
2023-01-27T01:50:59.133Z,99250.41
2023-01-27T01:53:30.062Z,99253.06
2023-01-27T01:56:05.387Z,99255.72
2023-01-27T01:58:32.396Z,99247.22
2023-01-27T02:00:59.380Z,99248.47
2023-01-27T02:03:28.142Z,99256.28
2023-01-27T02:05:56.253Z,99252.97
2023-01-27T02:08:29.736Z,99258.75
2023-01-27T02:10:57.050Z,99255.25
2023-01-27T02:13:23.871Z,99233.19
2023-01-27T02:15:52.369Z,99247.84
2023-01-27T02:18:19.326Z,99248.22
2023-01-27T02:20:47.724Z,99239.59
2023-01-27T02:23:33.585Z,99235.50
2023-01-27T02:26:14.363Z,99237.50
2023-01-27T02:28:41.183Z,99234.84
2023-01-27T02:31:08.166Z,99238.16
2023-01-27T02:33:35.255Z,99232.00
2023-01-27T02:36:16.685Z,99231.00
2023-01-27T02:38:52.227Z,99235.03
2023-01-27T02:41:22.873Z,99238.25
2023-01-27T02:43:50.061Z,99231.63
2023-01-27T02:46:17.920Z,99228.78
2023-01-27T02:48:45.680Z,99230.28
2023-01-27T02:51:12.869Z,99226.44
2023-01-27T02:53:42.850Z,99230.09
2023-01-27T02:56:09.858Z,99213.22
2023-01-27T02:58:36.935Z,99223.84
2023-01-27T03:01:16.366Z,99227.97
2023-01-27T03:03:47.827Z,99225.94
2023-01-27T03:06:19.550Z,99212.69
2023-01-27T03:08:46.467Z,99220.81
2023-01-27T03:11:15.053Z,99226.31
2023-01-27T03:13:42.196Z,99224.84
2023-01-27T03:16:30.610Z,99220.09
2023-01-27T03:18:57.656Z,99225.97
2023-01-27T03:21:25.271Z,99235.94
2023-01-27T03:23:52.247Z,99236.94
2023-01-27T03:26:22.495Z,99225.31
2023-01-27T03:29:12.812Z,99223.50
2023-01-27T03:31:42.839Z,99219.00
2023-01-27T03:34:10.618Z,99222.13
2023-01-27T03:37:12.322Z,99223.41
2023-01-27T03:39:58.276Z,99228.88
2023-01-27T03:42:43.690Z,99227.25
2023-01-27T03:45:29.536Z,99217.63
2023-01-27T03:47:56.304Z,99214.59
2023-01-27T03:50:37.877Z,99227.69
2023-01-27T03:53:06.140Z,99238.97
2023-01-27T03:55:33.987Z,99242.25
2023-01-27T03:58:19.918Z,99240.97
2023-01-27T04:00:56.438Z,99232.72
2023-01-27T04:03:43.150Z,99240.78
2023-01-27T04:06:59.025Z,99229.25
2023-01-27T04:09:25.953Z,99245.19
2023-01-27T04:11:56.246Z,99236.84
2023-01-27T04:14:25.157Z,99248.94
2023-01-27T04:16:53.563Z,99244.28
2023-01-27T04:19:20.526Z,99247.09
2023-01-27T04:21:47.546Z,99252.97
2023-01-27T04:24:19.880Z,99247.16
2023-01-27T04:26:50.145Z,99251.84
2023-01-27T04:29:18.724Z,99257.97
2023-01-27T04:31:45.958Z,99263.09
2023-01-27T04:34:13.182Z,99262.25
2023-01-27T04:40:36.311Z,99247.16
2023-01-27T04:43:06.827Z,99256.50
2023-01-27T04:45:40.329Z,99257.88
2023-01-27T04:48:07.669Z,99266.66
2023-01-27T04:50:34.987Z,99265.47
2023-01-27T04:53:02.033Z,99262.44
2023-01-27T04:55:29.572Z,99266.94
2023-01-27T04:57:56.680Z,99258.16
2023-01-27T05:00:23.747Z,99266.94
2023-01-27T05:02:51.413Z,99272.06
2023-01-27T05:05:18.814Z,99276.09
2023-01-27T05:07:45.786Z,99268.47
2023-01-27T05:10:12.589Z,99266.84
2023-01-27T05:12:39.815Z,99269.94
2023-01-27T05:15:08.180Z,99268.13
2023-01-27T05:17:35.220Z,99273.44
2023-01-27T05:20:02.227Z,99276.91
2023-01-27T05:22:29.839Z,99276.72
2023-01-27T05:24:56.817Z,99275.53
2023-01-27T05:27:26.297Z,99285.81
2023-01-27T05:29:57.345Z,99290.13
2023-01-27T05:32:24.375Z,99285.63
2023-01-27T05:34:51.279Z,99294.59
2023-01-27T05:37:18.153Z,99286.00
2023-01-27T05:39:45.073Z,99288.81
2023-01-27T05:42:11.963Z,99288.81
2023-01-27T05:44:38.763Z,99294.13
2023-01-27T05:47:09.568Z,99304.41
2023-01-27T05:49:36.638Z,99306.50
2023-01-27T05:52:05.904Z,99296.72
2023-01-27T05:54:34.322Z,99295.91
2023-01-27T05:57:04.294Z,99297.38
2023-01-27T05:59:31.483Z,99297.00
2023-01-27T06:02:01.403Z,99305.59
2023-01-27T06:04:29.192Z,99305.59
2023-01-27T06:06:56.039Z,99304.13
2023-01-27T06:09:22.824Z,99301.47
2023-01-27T06:11:49.700Z,99308.81
2023-01-27T06:14:16.701Z,99308.63
2023-01-27T06:16:44.226Z,99309.44
2023-01-27T06:19:11.356Z,99305.78
2023-01-27T06:21:38.365Z,99303.59
2023-01-27T06:24:07.831Z,99307.06
2023-01-27T06:26:36.909Z,99307.53
2023-01-27T06:29:03.764Z,99312.66
2023-01-27T06:31:30.844Z,99312.09
2023-01-27T06:33:57.845Z,99312.59
2023-01-27T06:36:24.900Z,99298.97
2023-01-27T06:38:55.457Z,99319.19
2023-01-27T06:41:22.393Z,99317.38
2023-01-27T06:43:49.497Z,99317.19
2023-01-27T06:46:25.769Z,99306.19
2023-01-27T06:48:52.859Z,99310.31
2023-01-27T06:51:19.909Z,99313.25
2023-01-27T06:53:46.974Z,99318.00
2023-01-27T06:56:17.491Z,99315.16
2023-01-27T06:58:44.712Z,99322.56
2023-01-27T07:01:14.830Z,99315.28
2023-01-27T07:03:44.422Z,99315.44
2023-01-27T07:06:11.938Z,99319.09
2023-01-27T07:08:38.990Z,99320.75
2023-01-27T07:11:05.982Z,99325.91
2023-01-27T07:13:32.939Z,99327.88
2023-01-27T07:16:00.651Z,99326.06
2023-01-27T07:18:30.452Z,99329.66
2023-01-27T07:20:57.474Z,99323.78
2023-01-27T07:23:24.667Z,99326.91
2023-01-27T07:25:51.676Z,99331.84
2023-01-27T07:28:18.658Z,99325.53
2023-01-27T07:30:45.646Z,99323.50
2023-01-27T07:33:14.334Z,99325.78
2023-01-27T07:35:48.457Z,99336.03
2023-01-27T07:38:16.024Z,99330.19
2023-01-27T07:40:43.168Z,99336.59
2023-01-27T07:43:10.683Z,99336.41
2023-01-27T07:45:40.524Z,99340.09
2023-01-27T07:48:08.956Z,99346.88
2023-01-27T07:50:36.515Z,99342.19
2023-01-27T07:53:04.854Z,99345.66
2023-01-27T07:55:32.629Z,99344.22
2023-01-27T07:57:59.927Z,99349.72
2023-01-27T08:00:28.541Z,99357.31
2023-01-27T08:02:59.035Z,99372.53
2023-01-27T08:05:30.495Z,99360.06
2023-01-27T08:08:16.208Z,99346.94
2023-01-27T08:10:49.596Z,99351.88
2023-01-27T08:13:17.183Z,99356.13
2023-01-27T08:15:45.073Z,99357.00
2023-01-27T08:18:12.493Z,99353.91
2023-01-27T08:20:39.686Z,99356.75
2023-01-27T08:23:06.710Z,99360.63
2023-01-27T08:25:33.868Z,99355.44
2023-01-27T08:28:01.041Z,99363.28
2023-01-27T08:30:28.300Z,99350.81
2023-01-27T08:32:55.727Z,99355.38
2023-01-27T08:35:23.105Z,99366.25
2023-01-27T08:37:50.432Z,99370.13
2023-01-27T08:40:23.097Z,99360.50
2023-01-27T08:42:56.892Z,99361.97
2023-01-27T08:45:27.252Z,99348.28
2023-01-27T08:47:54.545Z,99354.69
2023-01-27T08:50:21.908Z,99355.13
2023-01-27T08:52:49.234Z,99361.38
2023-01-27T08:55:16.421Z,99358.78
2023-01-27T08:57:43.935Z,99359.41
2023-01-27T09:00:13.732Z,99362.09
2023-01-27T09:02:41.287Z,99358.16
2023-01-27T09:05:08.294Z,99364.66
2023-01-27T09:07:37.909Z,99361.00
2023-01-27T09:10:14.095Z,99361.44
2023-01-27T09:12:47.164Z,99356.56
2023-01-27T09:15:20.889Z,99357.59
2023-01-27T09:17:48.589Z,99359.88
2023-01-27T09:20:16.443Z,99363.97
2023-01-27T09:22:43.703Z,99361.50
2023-01-27T09:25:14.401Z,99366.19
2023-01-27T09:27:41.813Z,99362.53
2023-01-27T09:30:15.838Z,99361.88
2023-01-27T09:32:43.216Z,99363.47
2023-01-27T09:35:10.451Z,99361.56
2023-01-27T09:37:53.856Z,99353.09
2023-01-27T09:40:32.267Z,99356.97
2023-01-27T09:43:11.577Z,99361.28
2023-01-27T09:45:42.034Z,99357.59
2023-01-27T09:48:28.019Z,99365.88
2023-01-27T09:51:03.975Z,99365.13
2023-01-27T09:53:34.217Z,99366.84
2023-01-27T09:56:20.044Z,99368.94
2023-01-27T09:58:53.255Z,99369.19
2023-01-27T10:01:41.671Z,99361.63
2023-01-27T10:04:14.776Z,99351.00
2023-01-27T10:06:58.112Z,99370.09
2023-01-27T10:09:36.347Z,99356.31
2023-01-27T10:12:21.021Z,99360.56
2023-01-27T10:15:25.180Z,99353.53
2023-01-27T10:18:06.994Z,99356.38
2023-01-27T10:20:34.075Z,99367.22
2023-01-27T10:23:01.309Z,99355.75
2023-01-27T10:25:34.672Z,99364.38
2023-01-27T10:28:07.373Z,99357.84
2023-01-27T10:31:09.721Z,99365.44
2023-01-27T10:39:55.583Z,99364.25
2023-01-27T10:42:05.213Z,99357.66
2023-01-27T10:45:06.990Z,99369.75
2023-01-27T10:47:40.596Z,99373.81
2023-01-27T10:50:26.675Z,99369.88
2023-01-27T10:53:08.617Z,99363.28
2023-01-27T10:55:38.651Z,99362.28
2023-01-27T10:58:28.869Z,99367.97
2023-01-27T11:01:21.437Z,99375.13
2023-01-27T11:04:11.038Z,99373.47
2023-01-27T11:06:44.957Z,99379.00
2023-01-27T11:09:24.982Z,99374.88
2023-01-27T11:11:52.615Z,99381.34
2023-01-27T11:14:38.967Z,99385.66
2023-01-27T11:17:18.184Z,99375.84
2023-01-27T11:19:52.857Z,99372.84
2023-01-27T11:22:52.703Z,99382.47
2023-01-27T11:30:45.247Z,99379.63
2023-01-27T11:33:22.194Z,99374.31
2023-01-27T11:35:49.743Z,99370.63
2023-01-27T11:38:19.062Z,99373.94
2023-01-27T11:40:47.172Z,99378.69
2023-01-27T11:43:18.163Z,99377.09
2023-01-27T11:45:46.803Z,99367.91
2023-01-27T11:48:17.687Z,99372.22
2023-01-27T11:50:47.374Z,99377.16
2023-01-27T11:53:28.474Z,99379.91
2023-01-27T11:56:02.470Z,99375.22
2023-01-27T11:58:43.496Z,99382.38
2023-01-27T12:01:18.134Z,99386.25
2023-01-27T12:04:09.876Z,99381.94
2023-01-27T12:07:34.867Z,99391.75
2023-01-27T12:14:54.616Z,99396.16
2023-01-27T12:17:31.751Z,99395.34
2023-01-27T12:20:03.888Z,99396.16
2023-01-27T12:22:40.555Z,99390.84
2023-01-27T12:25:14.382Z,99392.13
2023-01-27T12:27:47.085Z,99395.25
2023-01-27T12:30:34.529Z,99395.88
2023-01-27T12:33:11.175Z,99395.69
2023-01-27T12:35:38.093Z,99398.38
2023-01-27T12:38:17.635Z,99399.00
2023-01-27T12:40:46.160Z,99405.59
2023-01-27T12:43:13.637Z,99408.44
2023-01-27T12:45:50.873Z,99407.63
2023-01-27T12:48:21.602Z,99407.81
2023-01-27T12:50:56.951Z,99412.13
2023-01-27T12:53:27.946Z,99416.03
2023-01-27T12:56:07.257Z,99418.31
2023-01-27T12:58:34.117Z,99417.31
2023-01-27T13:01:04.626Z,99414.66
2023-01-27T13:03:37.272Z,99423.66
2023-01-27T13:06:14.199Z,99423.22
2023-01-27T13:08:42.105Z,99420.09
2023-01-27T13:11:09.678Z,99418.25
2023-01-27T13:13:36.888Z,99418.25
2023-01-27T13:16:03.969Z,99413.75
2023-01-27T13:18:35.704Z,99420.28
2023-01-27T13:21:32.242Z,99421.50
2023-01-27T13:24:00.506Z,99419.03
2023-01-27T13:26:29.667Z,99433.16
2023-01-27T13:29:05.886Z,99435.19
2023-01-27T13:31:43.230Z,99435.53
2023-01-27T13:34:31.581Z,99438.75
2023-01-27T13:37:03.799Z,99441.16
2023-01-27T13:39:49.399Z,99438.22
2023-01-27T13:42:22.559Z,99447.59
2023-01-27T13:44:51.764Z,99446.13
2023-01-27T13:47:20.978Z,99448.34
2023-01-27T13:49:50.881Z,99449.69
2023-01-27T13:52:18.100Z,99435.56
2023-01-27T13:54:45.250Z,99440.06
2023-01-27T13:57:23.006Z,99438.88
2023-01-27T14:00:00.096Z,99450.34
2023-01-27T14:02:30.273Z,99436.88
2023-01-27T14:05:06.554Z,99444.69
2023-01-27T14:07:44.158Z,99437.53
2023-01-27T14:10:29.939Z,99444.69
2023-01-27T14:13:02.853Z,99451.84
2023-01-27T14:15:30.098Z,99449.34
2023-01-27T14:18:19.397Z,99453.19
2023-01-27T14:21:05.914Z,99455.41
2023-01-27T14:23:48.363Z,99459.72
2023-01-27T14:26:18.629Z,99468.50
2023-01-27T14:28:59.325Z,99467.50
2023-01-27T14:31:37.806Z,99475.09
2023-01-27T14:34:15.999Z,99490.09
2023-01-27T14:36:48.519Z,99489.28
2023-01-27T14:39:30.732Z,99488.41
2023-01-27T14:42:11.481Z,99493.72
2023-01-27T14:45:04.309Z,99484.28
2023-01-27T14:47:40.799Z,99487.31
2023-01-27T14:50:13.805Z,99489.34
2023-01-27T14:52:54.362Z,99493.47
2023-01-27T14:55:50.145Z,99497.13
2023-01-27T14:58:32.706Z,99496.50
2023-01-27T15:01:05.863Z,99496.69
2023-01-27T15:03:51.801Z,99503.00
2023-01-27T15:06:47.572Z,99501.34
2023-01-27T15:09:28.229Z,99505.03
2023-01-27T15:11:58.257Z,99499.53
2023-01-27T15:14:57.857Z,99507.97
2023-01-27T15:17:36.414Z,99507.41
2023-01-27T15:20:18.743Z,99493.72
2023-01-27T15:22:50.298Z,99499.06
2023-01-27T15:25:33.802Z,99504.03
2023-01-27T15:28:02.055Z,99502.19
2023-01-27T15:30:29.200Z,99493.41
2023-01-27T15:32:56.618Z,99506.06
2023-01-27T15:35:30.259Z,99514.19
2023-01-27T15:38:09.691Z,99504.38
2023-01-27T15:40:56.367Z,99506.06
2023-01-27T15:43:27.778Z,99510.19
2023-01-27T15:45:55.376Z,99515.31
2023-01-27T15:48:26.433Z,99518.63
2023-01-27T15:51:01.402Z,99514.94
2023-01-27T15:53:44.730Z,99519.25
2023-01-27T15:56:11.764Z,99521.09
2023-01-27T15:58:41.138Z,99520.91
2023-01-27T16:01:23.008Z,99529.91
2023-01-27T16:03:51.779Z,99519.25
2023-01-27T16:06:23.670Z,99527.25
2023-01-27T16:08:52.679Z,99523.56
2023-01-27T16:11:24.042Z,99532.19
2023-01-27T16:13:51.067Z,99537.31
2023-01-27T16:16:18.046Z,99529.97
2023-01-27T16:18:51.617Z,99533.91
2023-01-27T16:21:33.541Z,99530.44
2023-01-27T16:24:05.357Z,99533.75
2023-01-27T16:26:45.621Z,99532.72
2023-01-27T16:29:12.450Z,99529.25
2023-01-27T16:31:40.923Z,99538.06
2023-01-27T16:34:15.488Z,99538.88
2023-01-27T16:36:42.592Z,99534.38
2023-01-27T16:39:18.654Z,99538.06
2023-01-27T16:41:52.017Z,99537.22
2023-01-27T16:44:40.255Z,99545.03
2023-01-27T16:47:16.952Z,99553.84
2023-01-27T16:49:44.270Z,99548.50
2023-01-27T16:52:17.516Z,99543.81
2023-01-27T16:54:45.681Z,99553.28
2023-01-27T16:57:25.062Z,99543.31
2023-01-27T16:59:52.203Z,99552.75
2023-01-27T17:02:21.068Z,99552.38
2023-01-27T17:04:52.790Z,99550.34
2023-01-27T17:07:19.623Z,99547.31
2023-01-27T17:09:51.255Z,99547.31
2023-01-27T17:12:34.878Z,99545.28
2023-01-27T17:15:12.221Z,99548.41
2023-01-27T17:17:40.145Z,99544.09
2023-01-27T17:20:08.096Z,99538.59
2023-01-27T17:22:43.163Z,99554.38
2023-01-27T17:25:22.781Z,99540.41
2023-01-27T17:27:49.963Z,99546.56
2023-01-27T17:30:25.098Z,99548.22
2023-01-27T17:32:53.606Z,99555.66
2023-01-27T17:35:23.978Z,99551.59
2023-01-27T17:37:50.955Z,99565.41
2023-01-27T17:40:22.400Z,99564.56
2023-01-27T17:42:49.849Z,99558.13
2023-01-27T17:45:22.020Z,99563.81
2023-01-27T17:47:49.252Z,99558.50
2023-01-27T17:50:17.729Z,99557.28
2023-01-27T17:52:52.105Z,99564.28
2023-01-27T17:55:43.479Z,99568.59
2023-01-27T17:58:15.531Z,99565.94
2023-01-27T18:00:44.231Z,99568.25
2023-01-27T18:03:15.482Z,99569.72
2023-01-27T18:05:44.268Z,99565.03
2023-01-27T18:08:11.882Z,99570.97
2023-01-27T18:10:41.088Z,99572.44
2023-01-27T18:13:20.315Z,99572.44
2023-01-27T18:15:51.576Z,99574.28
2023-01-27T18:18:23.186Z,99582.47
2023-01-27T18:20:53.988Z,99576.50
2023-01-27T18:23:31.269Z,99575.03
2023-01-27T18:26:21.443Z,99580.53
2023-01-27T18:28:53.621Z,99578.72
2023-01-27T18:31:25.129Z,99570.91
2023-01-27T18:33:56.477Z,99582.53
2023-01-27T18:36:24.886Z,99576.38
2023-01-27T18:38:52.320Z,99569.41
2023-01-27T18:41:22.934Z,99584.75
2023-01-27T18:43:49.764Z,99592.75
2023-01-27T18:46:16.759Z,99585.75
2023-01-27T18:48:43.926Z,99585.75
2023-01-27T18:51:14.960Z,99590.25
2023-01-27T18:53:45.719Z,99598.06
2023-01-27T18:56:12.562Z,99592.94
2023-01-27T18:58:39.505Z,99589.25
2023-01-27T19:01:13.516Z,99595.22
2023-01-27T19:03:40.606Z,99605.34
2023-01-27T19:06:15.921Z,99599.63
2023-01-27T19:08:43.441Z,99609.09
2023-01-27T19:11:14.062Z,99606.06
2023-01-27T19:13:41.881Z,99606.69
2023-01-27T19:16:21.539Z,99598.72
2023-01-27T19:18:51.547Z,99602.00
2023-01-27T19:21:18.828Z,99592.38
2023-01-27T19:23:46.141Z,99606.69
2023-01-27T19:26:21.437Z,99606.88
2023-01-27T19:28:56.214Z,99606.06
2023-01-27T19:31:23.877Z,99612.22
2023-01-27T19:33:51.631Z,99613.84
2023-01-27T19:36:23.799Z,99614.50
2023-01-27T19:39:12.973Z,99616.97
2023-01-27T19:41:40.219Z,99605.13
2023-01-27T19:44:08.204Z,99612.56
2023-01-27T19:46:38.554Z,99606.84
2023-01-27T19:49:06.648Z,99610.81
2023-01-27T19:51:39.715Z,99612.91
2023-01-27T19:54:06.825Z,99613.19
2023-01-27T19:56:33.880Z,99607.84
2023-01-27T19:59:01.142Z,99606.00
2023-01-27T20:01:28.369Z,99599.66
2023-01-27T20:04:00.951Z,99612.41
2023-01-27T20:06:30.074Z,99599.72
2023-01-27T20:08:59.809Z,99605.06
2023-01-27T20:11:27.332Z,99610.38
2023-01-27T20:13:57.444Z,99613.44
2023-01-27T20:16:25.890Z,99617.09
2023-01-27T20:18:53.962Z,99611.16
2023-01-27T20:21:20.945Z,99610.50
2023-01-27T20:23:48.390Z,99611.06
2023-01-27T20:26:16.325Z,99608.78
2023-01-27T20:28:44.022Z,99605.66
2023-01-27T20:31:14.602Z,99619.16
2023-01-27T20:33:41.586Z,99616.50
2023-01-27T20:36:09.539Z,99621.63
2023-01-27T20:38:36.693Z,99618.63
2023-01-27T20:41:07.704Z,99626.81
2023-01-27T20:43:35.693Z,99632.47
2023-01-27T20:46:04.366Z,99629.81
2023-01-27T20:48:41.001Z,99627.53
2023-01-27T20:51:09.433Z,99631.56
2023-01-27T20:53:41.768Z,99623.75
2023-01-27T20:56:12.743Z,99625.78
2023-01-27T20:58:39.832Z,99625.34
2023-01-27T21:01:08.314Z,99622.03
2023-01-27T21:03:36.167Z,99623.69
2023-01-27T21:06:03.706Z,99617.34
2023-01-27T21:08:30.590Z,99617.34
2023-01-27T21:10:59.548Z,99622.50
2023-01-27T21:13:26.587Z,99624.13
2023-01-27T21:15:53.685Z,99620.47
2023-01-27T21:18:20.731Z,99625.59
2023-01-27T21:20:48.351Z,99624.41
2023-01-27T21:23:16.050Z,99633.41
2023-01-27T21:25:43.097Z,99630.94
2023-01-27T21:28:10.105Z,99637.72
2023-01-27T21:30:36.981Z,99638.09
2023-01-27T21:33:03.996Z,99634.59
2023-01-27T21:35:30.959Z,99622.31
2023-01-27T21:37:57.908Z,99626.44
2023-01-27T21:40:24.877Z,99630.56
2023-01-27T21:43:10.323Z,99630.19
2023-01-27T21:45:37.395Z,99631.66
2023-01-27T21:48:04.754Z,99632.28
2023-01-27T21:50:31.834Z,99629.28
2023-01-27T21:52:58.756Z,99642.03
2023-01-27T21:55:27.277Z,99636.16
2023-01-27T21:57:55.272Z,99632.09
2023-01-27T22:00:23.654Z,99623.72
2023-01-27T22:02:56.336Z,99630.31
2023-01-27T22:05:23.644Z,99628.47
2023-01-27T22:07:51.861Z,99628.94
2023-01-27T22:10:20.171Z,99629.41
2023-01-27T22:12:47.251Z,99636.63
2023-01-27T22:15:15.588Z,99635.25
2023-01-27T22:17:43.058Z,99635.50
2023-01-27T22:20:12.967Z,99633.47
2023-01-27T22:22:39.905Z,99630.63
2023-01-27T22:25:07.456Z,99634.72
2023-01-27T22:27:35.138Z,99637.22
2023-01-27T22:30:02.018Z,99635.19
2023-01-27T22:32:29.519Z,99635.00
2023-01-27T22:34:56.658Z,99636.47
2023-01-27T22:37:23.515Z,99638.13
2023-01-27T22:39:50.583Z,99635.47
2023-01-27T22:42:20.534Z,99647.59
2023-01-27T22:44:47.370Z,99636.91
2023-01-27T22:47:14.253Z,99643.91
2023-01-27T22:49:41.017Z,99649.88
2023-01-27T22:52:07.887Z,99650.69
2023-01-27T22:54:34.730Z,99647.22
2023-01-27T22:57:06.253Z,99652.09
2023-01-27T22:59:33.128Z,99644.84
2023-01-27T23:01:59.976Z,99646.03
2023-01-27T23:04:26.912Z,99652.78
2023-01-27T23:06:53.779Z,99649.47
2023-01-27T23:09:20.704Z,99649.47
2023-01-27T23:11:47.525Z,99653.97
2023-01-27T23:14:17.151Z,99655.63
2023-01-27T23:16:44.185Z,99656.63
2023-01-27T23:19:11.198Z,99659.31
2023-01-27T23:21:37.992Z,99658.09
2023-01-27T23:24:07.511Z,99665.09
2023-01-27T23:26:37.246Z,99664.44
2023-01-27T23:29:06.848Z,99670.78
2023-01-27T23:31:40.375Z,99663.81
2023-01-27T23:34:07.356Z,99659.50
2023-01-27T23:36:40.583Z,99665.66
2023-01-27T23:39:07.531Z,99674.22
2023-01-27T23:41:34.406Z,99670.28
2023-01-27T23:44:01.309Z,99673.31
2023-01-27T23:46:28.236Z,99671.88
2023-01-27T23:48:55.485Z,99678.41
2023-01-27T23:51:22.746Z,99678.75
2023-01-27T23:53:50.022Z,99677.28
2023-01-27T23:56:19.446Z,99690.34
2023-01-27T23:58:46.315Z,99680.25
